createdAt,value
2022-12-31T00:02:00.738Z,100.00
2022-12-31T00:04:30.500Z,100.00
2022-12-31T00:07:00.198Z,100.00
2022-12-31T00:09:29.872Z,100.00
2022-12-31T00:11:59.510Z,100.00
2022-12-31T00:14:29.174Z,100.00
2022-12-31T00:17:01.654Z,100.00
2022-12-31T00:19:31.327Z,100.00
2022-12-31T00:22:00.980Z,100.00
2022-12-31T00:24:31.260Z,100.00
2022-12-31T00:27:00.973Z,100.00
2022-12-31T00:29:30.656Z,100.00
2022-12-31T00:32:02.898Z,100.00
2022-12-31T00:34:32.566Z,100.00
2022-12-31T00:37:02.255Z,100.00
2022-12-31T00:39:32.012Z,100.00
2022-12-31T00:42:01.729Z,100.00
2022-12-31T00:44:31.376Z,100.00
2022-12-31T00:47:03.661Z,100.00
2022-12-31T00:49:33.302Z,100.00
2022-12-31T00:52:02.959Z,100.00
2022-12-31T00:54:32.785Z,100.00
2022-12-31T00:57:02.455Z,100.00
2022-12-31T00:59:32.108Z,100.00
2022-12-31T01:02:04.512Z,100.00
2022-12-31T01:04:34.285Z,100.00
2022-12-31T01:07:04.044Z,100.00
2022-12-31T01:09:33.705Z,100.00
2022-12-31T01:12:03.609Z,100.00
2022-12-31T01:14:33.994Z,100.00
2022-12-31T01:17:06.298Z,100.00
2022-12-31T01:19:35.958Z,100.00
2022-12-31T01:22:05.652Z,100.00
2022-12-31T01:24:35.325Z,100.00
2022-12-31T01:27:04.987Z,100.00
2022-12-31T01:29:34.965Z,100.00
2022-12-31T01:32:07.735Z,100.00
2022-12-31T01:34:37.392Z,100.00
2022-12-31T01:37:07.014Z,100.00
2022-12-31T01:39:36.635Z,100.00
2022-12-31T01:42:06.554Z,100.00
2022-12-31T01:44:53.087Z,100.00
2022-12-31T01:47:37.377Z,100.00
2022-12-31T01:50:12.887Z,100.00
2022-12-31T01:52:45.203Z,100.00
2022-12-31T01:55:20.378Z,100.00
2022-12-31T01:57:53.801Z,100.00
2022-12-31T02:00:23.624Z,100.00
2022-12-31T02:02:56.074Z,100.00
2022-12-31T02:13:15.205Z,100.00
2022-12-31T02:15:54.636Z,100.00
2022-12-31T02:18:38.873Z,100.00
2022-12-31T02:21:40.671Z,100.00
2022-12-31T02:24:39.528Z,100.00
2022-12-31T02:27:13.499Z,100.00
2022-12-31T02:30:14.199Z,100.00
2022-12-31T02:33:08.582Z,100.00
2022-12-31T02:35:47.776Z,100.00
2022-12-31T02:38:23.251Z,100.00
2022-12-31T02:40:53.215Z,100.00
2022-12-31T02:43:22.974Z,100.00
2022-12-31T02:46:07.228Z,100.00
2022-12-31T02:48:46.878Z,100.00
2022-12-31T02:51:33.916Z,100.00
2022-12-31T02:54:18.489Z,100.00
2022-12-31T02:57:01.328Z,100.00
2022-12-31T02:59:49.475Z,100.00
2022-12-31T03:02:24.243Z,100.00
2022-12-31T03:04:56.291Z,100.00
2022-12-31T03:07:29.002Z,100.00
2022-12-31T03:09:59.002Z,100.00
2022-12-31T03:12:44.182Z,100.00
2022-12-31T03:15:22.475Z,100.00
2022-12-31T03:18:03.292Z,100.00
2022-12-31T03:20:47.866Z,100.00
2022-12-31T03:23:20.581Z,100.00
2022-12-31T03:25:47.827Z,100.00
2022-12-31T03:28:19.039Z,100.00
2022-12-31T03:30:50.824Z,100.00
2022-12-31T03:33:23.718Z,100.00
2022-12-31T03:35:55.060Z,100.00
2022-12-31T03:38:24.995Z,100.00
2022-12-31T03:40:56.343Z,100.00
2022-12-31T03:43:25.911Z,100.00
2022-12-31T03:45:59.710Z,100.00
2022-12-31T03:48:32.056Z,100.00
2022-12-31T03:51:01.608Z,100.00
2022-12-31T03:53:32.167Z,100.00
2022-12-31T03:56:01.712Z,100.00
2022-12-31T03:58:31.284Z,100.00
2022-12-31T04:01:00.976Z,100.00
2022-12-31T04:03:33.272Z,100.00
2022-12-31T04:06:02.820Z,100.00
2022-12-31T04:08:32.448Z,100.00
2022-12-31T04:11:01.994Z,100.00
2022-12-31T04:13:31.538Z,100.00
2022-12-31T04:16:01.103Z,100.00
2022-12-31T04:18:33.773Z,100.00
2022-12-31T04:21:05.072Z,100.00
2022-12-31T04:23:34.753Z,100.00
2022-12-31T04:26:04.474Z,100.00
2022-12-31T04:28:34.062Z,100.00
2022-12-31T04:31:04.225Z,100.00
2022-12-31T04:33:36.420Z,100.00
2022-12-31T04:36:06.536Z,100.00
2022-12-31T04:38:36.546Z,100.00
2022-12-31T04:41:18.734Z,100.00
2022-12-31T04:43:50.888Z,100.00
2022-12-31T04:46:22.687Z,100.00
2022-12-31T04:48:54.950Z,100.00
2022-12-31T04:51:25.300Z,100.00
2022-12-31T04:53:55.313Z,100.00
2022-12-31T04:56:24.969Z,100.00
2022-12-31T04:58:54.612Z,100.00
2022-12-31T05:01:24.620Z,100.00
2022-12-31T05:03:56.851Z,100.00
2022-12-31T05:06:26.494Z,100.00
2022-12-31T05:08:56.120Z,100.00
2022-12-31T05:11:25.941Z,100.00
2022-12-31T05:13:55.510Z,100.00
2022-12-31T05:16:25.233Z,100.00
2022-12-31T05:18:57.423Z,100.00
2022-12-31T05:21:26.994Z,100.00
2022-12-31T05:23:56.580Z,100.00
2022-12-31T05:26:26.219Z,100.00
2022-12-31T05:28:56.561Z,100.00
2022-12-31T05:31:26.102Z,100.00
2022-12-31T05:33:58.361Z,100.00
2022-12-31T05:36:27.930Z,100.00
2022-12-31T05:38:57.504Z,100.00
2022-12-31T05:41:27.477Z,100.00
2022-12-31T05:43:57.031Z,100.00
2022-12-31T05:46:26.635Z,100.00
2022-12-31T05:48:58.845Z,100.00
2022-12-31T05:51:28.432Z,100.00
2022-12-31T05:53:58.027Z,100.00
2022-12-31T05:56:27.616Z,100.00
2022-12-31T05:58:57.186Z,100.00
2022-12-31T06:01:27.033Z,100.00
2022-12-31T06:03:59.248Z,100.00
2022-12-31T06:06:28.953Z,100.00
2022-12-31T06:08:58.545Z,100.00
2022-12-31T06:11:28.191Z,100.00
2022-12-31T06:13:58.341Z,100.00
2022-12-31T06:16:28.853Z,100.00
2022-12-31T06:19:01.642Z,100.00
2022-12-31T06:21:32.543Z,100.00
2022-12-31T06:24:02.358Z,100.00
2022-12-31T06:26:31.898Z,100.00
2022-12-31T06:29:01.443Z,100.00
2022-12-31T06:31:31.140Z,100.00
2022-12-31T06:34:03.338Z,100.00
2022-12-31T06:36:32.931Z,100.00
2022-12-31T06:39:02.469Z,100.00
2022-12-31T06:41:32.011Z,100.00
2022-12-31T06:44:01.590Z,100.00
2022-12-31T06:46:31.663Z,100.00
2022-12-31T06:49:03.859Z,100.00
2022-12-31T06:51:33.463Z,100.00
2022-12-31T06:54:03.071Z,100.00
2022-12-31T06:56:34.873Z,100.00
2022-12-31T06:59:05.391Z,100.00
2022-12-31T07:01:48.628Z,100.00
2022-12-31T07:04:49.464Z,100.00
2022-12-31T07:07:27.123Z,100.00
2022-12-31T07:10:04.276Z,100.00
2022-12-31T07:12:47.702Z,100.00
2022-12-31T07:15:22.840Z,100.00
2022-12-31T07:18:04.758Z,100.00
2022-12-31T07:20:37.861Z,100.00
2022-12-31T07:23:08.143Z,100.00
2022-12-31T07:25:40.986Z,100.00
2022-12-31T07:28:21.656Z,100.00
2022-12-31T07:31:05.764Z,100.00
2022-12-31T07:33:53.024Z,100.00
2022-12-31T07:36:44.269Z,100.00
2022-12-31T07:39:17.399Z,100.00
2022-12-31T07:41:57.337Z,100.00
2022-12-31T07:44:48.216Z,100.00
2022-12-31T07:47:24.386Z,100.00
2022-12-31T07:49:56.267Z,100.00
2022-12-31T07:52:29.551Z,100.00
2022-12-31T07:54:59.234Z,100.00
2022-12-31T07:57:37.201Z,100.00
2022-12-31T08:00:11.243Z,100.00
2022-12-31T08:02:59.009Z,100.00
2022-12-31T08:05:34.931Z,100.00
2022-12-31T08:08:18.571Z,100.00
2022-12-31T08:10:57.050Z,100.00
2022-12-31T08:13:27.245Z,100.00
2022-12-31T08:15:57.849Z,100.00
2022-12-31T08:18:28.348Z,100.00
2022-12-31T08:21:08.694Z,100.00
2022-12-31T08:23:51.223Z,100.00
2022-12-31T08:26:30.398Z,100.00
2022-12-31T08:29:13.639Z,100.00
2022-12-31T08:31:52.823Z,100.00
2022-12-31T08:34:32.658Z,100.00
2022-12-31T08:37:09.460Z,100.00
2022-12-31T08:39:58.447Z,100.00
2022-12-31T08:42:37.760Z,100.00
2022-12-31T08:45:19.879Z,100.00
2022-12-31T08:48:00.032Z,100.00
2022-12-31T08:50:31.170Z,100.00
2022-12-31T08:53:02.134Z,100.00
2022-12-31T08:55:36.504Z,100.00
2022-12-31T08:58:24.172Z,100.00
2022-12-31T09:00:59.857Z,100.00
2022-12-31T09:03:49.247Z,100.00
2022-12-31T09:06:26.484Z,100.00
2022-12-31T09:09:03.987Z,100.00
2022-12-31T09:11:51.024Z,100.00
2022-12-31T09:14:43.361Z,100.00
2022-12-31T09:17:32.581Z,100.00
2022-12-31T09:20:03.149Z,100.00
2022-12-31T09:22:33.434Z,100.00
2022-12-31T09:25:03.737Z,100.00
2022-12-31T09:27:43.442Z,100.00
2022-12-31T09:30:16.353Z,100.00
2022-12-31T09:33:00.800Z,100.00
2022-12-31T09:35:40.202Z,100.00
2022-12-31T09:38:19.345Z,100.00
2022-12-31T09:41:08.462Z,100.00
2022-12-31T09:44:28.718Z,100.00
2022-12-31T09:47:26.058Z,100.00
2022-12-31T09:50:23.526Z,100.00
2022-12-31T09:53:13.502Z,100.00
2022-12-31T09:55:51.319Z,100.00
2022-12-31T09:58:35.253Z,100.00
2022-12-31T10:01:16.680Z,100.00
2022-12-31T10:04:23.147Z,100.00
2022-12-31T10:07:03.064Z,100.00
2022-12-31T10:09:47.753Z,100.00
2022-12-31T10:12:34.170Z,100.00
2022-12-31T10:15:19.159Z,100.00
2022-12-31T10:18:01.183Z,100.00
2022-12-31T10:20:47.087Z,100.00
2022-12-31T10:23:49.804Z,100.00
2022-12-31T10:26:34.216Z,100.00
2022-12-31T10:29:21.836Z,98.52
2022-12-31T10:32:02.795Z,97.77
2022-12-31T10:34:45.527Z,97.63
2022-12-31T10:37:20.703Z,97.96
2022-12-31T10:40:04.767Z,94.76
2022-12-31T10:43:00.428Z,95.09
2022-12-31T10:45:59.443Z,92.80
2022-12-31T10:48:57.197Z,94.24
2022-12-31T10:51:58.843Z,92.13
2022-12-31T10:55:07.963Z,90.89
2022-12-31T10:58:09.242Z,90.91
2022-12-31T11:00:47.266Z,93.90
2022-12-31T11:03:48.565Z,97.76
2022-12-31T11:06:56.491Z,100.00
2022-12-31T11:09:52.252Z,100.00
2022-12-31T11:12:46.590Z,100.00
2022-12-31T11:15:50.205Z,100.00
2022-12-31T11:18:33.003Z,100.00
2022-12-31T11:21:24.604Z,100.00
2022-12-31T11:24:08.663Z,100.00
2022-12-31T11:26:57.566Z,100.00
2022-12-31T11:29:42.368Z,100.00
2022-12-31T11:32:29.754Z,100.00
2022-12-31T11:35:18.599Z,100.00
2022-12-31T11:37:52.035Z,100.00
2022-12-31T11:40:35.285Z,100.00
2022-12-31T11:43:22.756Z,100.00
2022-12-31T11:46:09.397Z,100.00
2022-12-31T11:48:48.334Z,100.00
2022-12-31T11:51:48.429Z,100.00
2022-12-31T11:54:53.744Z,100.00
2022-12-31T11:57:29.034Z,100.00
2022-12-31T12:00:16.788Z,100.00
2022-12-31T12:02:50.232Z,100.00
2022-12-31T12:05:24.499Z,100.00
2022-12-31T12:07:56.999Z,100.00
2022-12-31T12:10:36.092Z,100.00
2022-12-31T12:13:15.315Z,100.00
2022-12-31T12:15:51.139Z,100.00
2022-12-31T12:18:31.604Z,100.00
2022-12-31T12:21:12.433Z,100.00
2022-12-31T12:23:45.245Z,100.00
2022-12-31T12:26:30.928Z,100.00
2022-12-31T12:29:03.944Z,100.00
2022-12-31T12:31:38.087Z,100.00
2022-12-31T12:34:23.868Z,100.00
2022-12-31T12:36:53.655Z,100.00
2022-12-31T12:39:26.844Z,100.00
2022-12-31T12:42:06.187Z,100.00
2022-12-31T12:44:38.270Z,99.95
2022-12-31T12:47:16.743Z,98.65
2022-12-31T12:49:49.584Z,98.78
2022-12-31T12:52:48.753Z,97.49
2022-12-31T12:55:28.210Z,98.20
2022-12-31T12:58:17.124Z,97.98
2022-12-31T13:00:54.308Z,96.44
2022-12-31T13:04:23.316Z,96.11
2022-12-31T13:06:49.949Z,95.79
2022-12-31T13:09:31.305Z,94.05
2022-12-31T13:12:15.887Z,95.27
2022-12-31T13:14:54.677Z,94.55
2022-12-31T13:17:39.442Z,93.27
2022-12-31T13:20:21.266Z,94.08
2022-12-31T13:22:59.068Z,93.41
2022-12-31T13:25:42.347Z,93.13
2022-12-31T13:28:17.735Z,92.19
2022-12-31T13:30:52.831Z,91.54
2022-12-31T13:33:27.581Z,93.39
2022-12-31T13:36:02.852Z,92.44
2022-12-31T13:38:37.344Z,91.80
2022-12-31T13:41:13.316Z,91.18
2022-12-31T13:43:51.013Z,90.37
2022-12-31T13:46:28.766Z,90.67
2022-12-31T13:49:02.270Z,88.87
2022-12-31T13:51:44.217Z,89.72
2022-12-31T13:54:33.765Z,90.35
2022-12-31T13:57:07.595Z,90.09
2022-12-31T13:59:42.348Z,89.87
2022-12-31T14:02:29.784Z,88.38
2022-12-31T14:05:06.150Z,89.04
2022-12-31T14:07:45.872Z,89.29
2022-12-31T14:10:17.875Z,90.94
2022-12-31T14:12:56.503Z,91.02
2022-12-31T14:15:34.310Z,92.22
2022-12-31T14:18:12.733Z,92.93
2022-12-31T14:20:50.533Z,93.71
2022-12-31T14:23:31.744Z,94.89
2022-12-31T14:26:07.006Z,96.61
2022-12-31T14:28:47.024Z,97.62
2022-12-31T14:31:28.727Z,97.65
2022-12-31T14:34:06.311Z,96.51
2022-12-31T14:36:56.080Z,96.63
2022-12-31T14:39:42.829Z,98.08
2022-12-31T14:42:24.749Z,99.35
2022-12-31T14:45:07.161Z,99.08
2022-12-31T14:47:49.914Z,98.74
2022-12-31T14:50:26.467Z,97.96
2022-12-31T14:52:59.269Z,98.73
2022-12-31T14:55:33.822Z,98.90
2022-12-31T15:00:57.887Z,99.54
2022-12-31T15:03:40.112Z,97.71
2022-12-31T15:06:38.549Z,98.57
2022-12-31T15:09:21.037Z,98.83
2022-12-31T15:12:14.052Z,98.57
2022-12-31T15:15:11.004Z,99.06
2022-12-31T15:17:53.178Z,98.86
2022-12-31T15:20:39.925Z,98.65
2022-12-31T15:23:17.324Z,99.05
2022-12-31T15:25:51.619Z,98.95
2022-12-31T15:28:38.286Z,98.21
2022-12-31T15:31:20.064Z,98.53
2022-12-31T15:34:02.363Z,98.43
2022-12-31T15:36:35.816Z,98.57
2022-12-31T15:39:28.379Z,97.29
2022-12-31T15:44:57.740Z,97.11
2022-12-31T15:47:32.527Z,97.13
2022-12-31T15:50:06.546Z,96.59
2022-12-31T15:52:44.468Z,96.61
2022-12-31T15:55:25.858Z,96.76
2022-12-31T15:58:02.250Z,96.29
2022-12-31T16:00:47.495Z,96.26
2022-12-31T16:03:24.970Z,96.65
2022-12-31T16:05:57.239Z,96.95
2022-12-31T16:08:31.603Z,96.91
2022-12-31T16:11:02.869Z,96.99
2022-12-31T16:13:35.372Z,96.80
2022-12-31T16:16:20.535Z,96.25
2022-12-31T16:18:53.137Z,95.88
2022-12-31T16:21:28.748Z,95.59
2022-12-31T16:24:00.407Z,95.29
2022-12-31T16:26:36.830Z,95.31
2022-12-31T16:29:08.010Z,95.13
2022-12-31T16:31:41.458Z,94.75
2022-12-31T16:34:17.637Z,94.65
2022-12-31T16:36:58.040Z,94.35
2022-12-31T16:39:33.458Z,93.74
2022-12-31T16:42:19.056Z,93.98
2022-12-31T16:44:49.453Z,93.51
2022-12-31T16:47:26.383Z,92.73
2022-12-31T16:50:04.108Z,91.51
2022-12-31T16:52:38.699Z,92.34
2022-12-31T16:55:11.140Z,91.28
2022-12-31T16:57:41.468Z,91.66
2022-12-31T17:00:20.841Z,90.52
2022-12-31T17:03:04.302Z,91.07
2022-12-31T17:05:35.275Z,90.85
2022-12-31T17:08:25.528Z,90.54
2022-12-31T17:10:56.569Z,92.35
2022-12-31T17:13:32.198Z,91.79
2022-12-31T17:16:03.214Z,92.21
2022-12-31T17:18:40.032Z,91.61
2022-12-31T17:21:12.475Z,92.04
2022-12-31T17:23:45.440Z,91.72
2022-12-31T17:26:23.314Z,92.17
2022-12-31T17:28:55.707Z,92.61
2022-12-31T17:31:34.483Z,92.46
2022-12-31T17:34:23.863Z,92.39
2022-12-31T17:37:05.805Z,92.59
2022-12-31T17:39:46.829Z,93.02
2022-12-31T17:42:29.322Z,92.84
2022-12-31T17:45:03.658Z,92.71
2022-12-31T17:47:39.533Z,92.09
2022-12-31T17:50:21.830Z,91.98
2022-12-31T17:52:55.985Z,92.02
2022-12-31T17:55:26.167Z,91.40
2022-12-31T17:57:59.310Z,90.64
2022-12-31T18:00:29.927Z,90.20
2022-12-31T18:03:00.803Z,88.90
2022-12-31T18:05:34.189Z,89.37
2022-12-31T18:08:05.148Z,89.12
2022-12-31T18:10:39.491Z,88.39
2022-12-31T18:13:18.372Z,88.10
2022-12-31T18:15:48.701Z,87.11
2022-12-31T18:18:25.139Z,86.36
2022-12-31T18:21:01.448Z,85.76
2022-12-31T18:23:33.933Z,85.25
2022-12-31T18:26:04.714Z,84.96
2022-12-31T18:28:34.619Z,84.70
2022-12-31T18:31:06.495Z,84.82
2022-12-31T18:33:38.363Z,82.68
2022-12-31T18:36:14.694Z,83.31
2022-12-31T18:38:44.946Z,83.28
2022-12-31T18:41:20.117Z,81.75
2022-12-31T18:43:50.955Z,81.58
2022-12-31T18:46:23.174Z,81.42
2022-12-31T18:48:52.906Z,81.26
2022-12-31T18:51:32.008Z,80.65
2022-12-31T18:54:04.723Z,80.17
2022-12-31T18:56:34.824Z,79.64
2022-12-31T18:59:05.186Z,79.74
2022-12-31T19:01:37.227Z,79.72
2022-12-31T19:04:19.917Z,78.12
2022-12-31T19:06:54.727Z,78.35
2022-12-31T19:12:16.805Z,78.41
2022-12-31T19:14:46.445Z,77.67
2022-12-31T19:17:17.662Z,77.39
2022-12-31T19:19:48.432Z,77.85
2022-12-31T19:22:20.844Z,77.32
2022-12-31T19:24:51.640Z,78.11
2022-12-31T19:27:21.438Z,77.80
2022-12-31T19:29:51.115Z,76.96
2022-12-31T19:32:20.812Z,77.32
2022-12-31T19:34:50.587Z,76.58
2022-12-31T19:37:22.948Z,75.41
2022-12-31T19:39:52.721Z,75.36
2022-12-31T19:42:22.469Z,74.65
2022-12-31T19:44:52.260Z,74.37
2022-12-31T19:47:21.977Z,74.16
2022-12-31T19:49:51.669Z,74.38
2022-12-31T19:52:24.024Z,73.62
2022-12-31T19:54:54.778Z,73.84
2022-12-31T19:57:24.490Z,73.31
2022-12-31T19:59:54.202Z,73.89
2022-12-31T20:02:23.966Z,73.39
2022-12-31T20:04:53.810Z,73.94
2022-12-31T20:07:27.343Z,73.84
2022-12-31T20:09:58.187Z,71.36
2022-12-31T20:12:27.895Z,72.49
2022-12-31T20:14:57.739Z,72.04
2022-12-31T20:17:28.128Z,71.55
2022-12-31T20:19:59.102Z,72.60
2022-12-31T20:22:31.435Z,72.19
2022-12-31T20:25:01.168Z,72.16
2022-12-31T20:27:30.983Z,71.54
2022-12-31T20:30:00.678Z,71.32
2022-12-31T20:32:31.942Z,72.17
2022-12-31T20:35:03.959Z,70.95
2022-12-31T20:37:38.323Z,70.42
2022-12-31T20:40:10.537Z,70.10
2022-12-31T20:42:41.498Z,70.03
2022-12-31T20:45:13.378Z,69.67
2022-12-31T20:47:43.036Z,69.49
2022-12-31T20:50:13.722Z,69.34
2022-12-31T20:52:47.567Z,69.66
2022-12-31T20:55:18.212Z,69.42
2022-12-31T20:57:47.957Z,68.92
2022-12-31T21:00:20.925Z,67.20
2022-12-31T21:03:00.256Z,68.58
2022-12-31T21:05:36.488Z,69.25
2022-12-31T21:08:08.959Z,68.91
2022-12-31T21:10:39.676Z,67.51
2022-12-31T21:13:06.753Z,67.93
2022-12-31T21:15:38.617Z,68.16
2022-12-31T21:18:08.621Z,67.66
2022-12-31T21:20:38.517Z,67.57
2022-12-31T21:23:11.786Z,67.33
2022-12-31T21:25:42.561Z,67.31
2022-12-31T21:28:12.295Z,67.69
2022-12-31T21:30:42.724Z,68.15
2022-12-31T21:33:12.539Z,67.45
2022-12-31T21:35:48.367Z,67.29
2022-12-31T21:38:25.670Z,66.56
2022-12-31T21:40:55.657Z,66.59
2022-12-31T21:43:27.389Z,66.38
2022-12-31T21:46:03.366Z,65.41
2022-12-31T21:48:33.265Z,65.50
2022-12-31T21:51:10.011Z,65.47
2022-12-31T21:53:43.434Z,64.46
2022-12-31T21:56:14.553Z,64.90
2022-12-31T21:58:47.054Z,65.25
2022-12-31T22:01:34.793Z,65.72
2022-12-31T22:04:04.670Z,64.85
2022-12-31T22:06:36.007Z,64.81
2022-12-31T22:09:11.972Z,65.03
2022-12-31T22:11:41.747Z,64.78
2022-12-31T22:14:11.841Z,63.82
2022-12-31T22:16:41.675Z,64.18
2022-12-31T22:19:12.482Z,64.87
2022-12-31T22:21:42.192Z,64.79
2022-12-31T22:24:14.805Z,64.51
2022-12-31T22:26:46.628Z,64.44
2022-12-31T22:29:19.301Z,64.21
2022-12-31T22:31:49.022Z,64.52
2022-12-31T22:34:18.715Z,63.92
2022-12-31T22:36:48.457Z,63.76
2022-12-31T22:39:43.733Z,64.29
2022-12-31T22:42:11.724Z,63.94
2022-12-31T22:44:41.460Z,64.54
2022-12-31T22:47:11.388Z,63.67
2022-12-31T22:49:42.059Z,64.21
2022-12-31T22:52:11.700Z,64.80
2022-12-31T22:54:45.957Z,65.16
2022-12-31T22:57:20.004Z,64.24
2022-12-31T22:59:51.383Z,64.67
2022-12-31T23:02:22.118Z,66.01
2022-12-31T23:04:51.930Z,64.42
2022-12-31T23:07:25.333Z,64.15
2022-12-31T23:10:10.125Z,65.10
2022-12-31T23:12:40.846Z,65.32
2022-12-31T23:15:25.031Z,64.38
2022-12-31T23:18:07.283Z,64.45
2022-12-31T23:20:49.521Z,64.02
2022-12-31T23:23:22.347Z,64.40
2022-12-31T23:25:55.253Z,64.61
2022-12-31T23:28:27.366Z,63.99
2022-12-31T23:31:00.531Z,64.81
2022-12-31T23:33:31.261Z,64.67
2022-12-31T23:36:08.510Z,64.28
2022-12-31T23:38:39.319Z,63.61
2022-12-31T23:41:18.219Z,64.73
2022-12-31T23:43:48.259Z,64.34
2022-12-31T23:46:20.438Z,64.18
2022-12-31T23:48:53.755Z,64.27
2022-12-31T23:51:25.475Z,63.76
2022-12-31T23:53:55.138Z,63.88
2022-12-31T23:56:27.417Z,64.37
2022-12-31T23:58:57.956Z,63.11
